Terminal Aerodrome Forecast
Issued by NWS

Home | Current Version | Previous Version | Text Only | Print | Product List | Glossary On
Versions: 1 2 3 4 5 6 7 8 9 10 11 12 13 14
000
FTUS46 KPDT 241100
TAFDLS
TAF
KDLS 241120Z 2412/2512 31009KT P6SM BKN060 BKN080
     FM241700 31015G23KT P6SM SCT060
     FM242000 31022G30KT P6SM SKC
     FM250400 30014KT P6SM SKC
     FM250600 30009KT P6SM SKC=

USA.gov is the U.S. government's official web portal to all federal, state and local government web resources and services.